Time;durP1;ratioP1;P1;durP2;ratioP2;P2;SDS_P1;SDS_P2;PMS_P1;PMS_P2;Temp;Humidity;BMP_temperature;BMP_pressure;BME280_temperature;BME280_humidity;BME280_pressure;Samples;Min_cycle;Max_cycle;Signal;HPM_P1;HPM_P2
2023/05/03 00:01:20;;;;;;;4.90;1.95;;;6.40;99.90;;;;;;4858173;29;20185;-83
2023/05/03 00:03:50;;;;;;;5.63;2.20;;;6.40;99.90;;;;;;4857912;29;20137;-83
2023/05/03 00:06:16;;;;;;;4.43;2.00;;;6.50;99.90;;;;;;4843398;29;20129;-83
2023/05/03 00:08:43;;;;;;;4.00;1.90;;;6.40;99.90;;;;;;4843555;29;20129;-83
2023/05/03 00:11:10;;;;;;;8.13;2.22;;;6.40;99.90;;;;;;4861478;29;20049;-83
2023/05/03 00:13:37;;;;;;;4.00;1.90;;;6.50;99.90;;;;;;4861220;29;20166;-82
2023/05/03 00:16:04;;;;;;;4.25;2.00;;;6.40;99.90;;;;;;4876323;29;20511;-83
2023/05/03 00:18:30;;;;;;;5.88;2.20;;;6.40;99.90;;;;;;4861506;29;20112;-83
2023/05/03 00:20:58;;;;;;;5.15;1.90;;;6.40;99.90;;;;;;4876339;29;20132;-83
2023/05/03 00:23:27;;;;;;;7.72;2.00;;;6.40;99.90;;;;;;4861070;29;20057;-82
2023/05/03 00:25:58;;;;;;;4.72;2.22;;;6.40;99.90;;;;;;4876252;29;20045;-83
2023/05/03 00:28:25;;;;;;;5.28;1.92;;;6.40;99.90;;;;;;4875859;29;20054;-82
2023/05/03 00:30:52;;;;;;;3.58;2.28;;;6.50;99.90;;;;;;4876263;29;20132;-83
2023/05/03 00:33:19;;;;;;;4.60;1.60;;;6.50;99.90;;;;;;4878045;29;20062;-83
2023/05/03 00:35:46;;;;;;;8.60;1.85;;;6.50;99.90;;;;;;4879477;29;20046;-83
2023/05/03 00:38:15;;;;;;;6.53;1.80;;;6.50;99.90;;;;;;4864449;29;20128;-83
2023/05/03 00:40:42;;;;;;;7.60;2.25;;;6.50;99.90;;;;;;4860925;29;20042;-82
2023/05/03 00:46:51;;;;;;;5.40;1.90;;;6.60;99.90;;;;;;4877757;29;20444;-83
2023/05/03 00:49:18;;;;;;;4.22;1.70;;;6.60;99.90;;;;;;4876037;29;20046;-83
2023/05/03 00:51:45;;;;;;;3.78;1.80;;;6.50;99.90;;;;;;4859983;29;20050;-83
2023/05/03 00:54:12;;;;;;;5.10;1.88;;;6.60;99.90;;;;;;4860612;29;20060;-83
2023/05/03 00:56:39;;;;;;;5.50;1.90;;;6.60;99.90;;;;;;4875715;29;20049;-83
2023/05/03 00:59:07;;;;;;;4.10;1.92;;;6.60;99.90;;;;;;4875837;29;20487;-83
2023/05/03 01:01:34;;;;;;;8.32;2.10;;;6.60;99.90;;;;;;4875843;29;20137;-83
2023/05/03 01:04:03;;;;;;;4.57;2.00;;;6.60;99.90;;;;;;4860374;29;20129;-83
2023/05/03 01:06:56;;;;;;;5.35;1.90;;;6.60;99.90;;;;;;4875756;29;20137;-82
2023/05/03 01:09:44;;;;;;;4.93;2.00;;;6.60;99.90;;;;;;4875812;29;20061;-83
2023/05/03 01:12:10;;;;;;;5.10;1.90;;;6.60;99.90;;;;;;4878853;29;20088;-83
2023/05/03 01:15:01;;;;;;;3.47;1.70;;;6.60;99.90;;;;;;4878747;29;20073;-83
2023/05/03 01:17:34;;;;;;;4.05;2.10;;;6.60;99.90;;;;;;4879141;29;20494;-83
2023/05/03 01:20:07;;;;;;;6.53;1.80;;;6.60;99.90;;;;;;4878777;29;20518;-83
2023/05/03 01:22:59;;;;;;;5.40;1.92;;;6.60;99.90;;;;;;4878646;29;20040;-83
2023/05/03 01:25:25;;;;;;;5.80;2.10;;;6.60;99.90;;;;;;4878628;29;20455;-83
2023/05/03 01:27:52;;;;;;;6.50;2.13;;;6.60;99.90;;;;;;4847921;29;20109;-82
2023/05/03 01:30:22;;;;;;;7.03;2.25;;;6.50;99.90;;;;;;4848320;29;20132;-83
2023/05/03 01:33:12;;;;;;;8.38;2.10;;;6.60;99.90;;;;;;4893335;29;20056;-83
2023/05/03 01:35:45;;;;;;;6.82;2.05;;;6.60;99.90;;;;;;4878429;29;20046;-83
2023/05/03 01:38:12;;;;;;;4.10;2.03;;;6.60;99.90;;;;;;4878674;29;20414;-83
2023/05/03 01:40:45;;;;;;;5.25;2.15;;;6.60;99.90;;;;;;4878466;29;20521;-83
2023/05/03 01:43:14;;;;;;;4.55;2.50;;;6.60;99.90;;;;;;4878736;29;20041;-83
2023/05/03 01:45:42;;;;;;;6.50;2.20;;;6.60;99.90;;;;;;4862124;29;20089;-83
2023/05/03 01:48:10;;;;;;;5.90;2.75;;;6.70;99.90;;;;;;4863256;29;20140;-83
2023/05/03 01:50:37;;;;;;;5.18;2.40;;;6.60;99.90;;;;;;4877731;29;20038;-83
2023/05/03 01:53:04;;;;;;;8.05;2.60;;;6.60;99.90;;;;;;4847731;29;20151;-83
2023/05/03 01:55:31;;;;;;;5.25;2.13;;;6.80;99.90;;;;;;4862753;29;20049;-83
2023/05/03 01:57:57;;;;;;;4.68;2.42;;;6.60;99.90;;;;;;4877699;29;20069;-83
2023/05/03 02:00:24;;;;;;;6.28;2.10;;;6.60;99.90;;;;;;4862609;29;20109;-83
2023/05/03 02:02:51;;;;;;;5.05;2.17;;;6.60;99.90;;;;;;4877596;29;20042;-83
2023/05/03 02:05:18;;;;;;;5.55;2.40;;;6.60;99.90;;;;;;4862836;29;20053;-83
2023/05/03 02:07:45;;;;;;;7.60;2.13;;;6.60;99.90;;;;;;4862385;29;20053;-83
2023/05/03 02:10:13;;;;;;;7.75;2.20;;;6.60;99.90;;;;;;4862654;29;20492;-83
2023/05/03 02:12:43;;;;;;;7.32;2.47;;;6.60;99.90;;;;;;4847442;29;20471;-82
2023/05/03 02:15:11;;;;;;;4.95;2.17;;;6.60;99.90;;;;;;4862600;29;20515;-83
2023/05/03 02:17:39;;;;;;;5.13;2.35;;;6.60;99.90;;;;;;4877895;29;20045;-83
2023/05/03 02:20:08;;;;;;;4.75;2.10;;;6.70;99.90;;;;;;4877286;29;20464;-83
2023/05/03 02:22:35;;;;;;;15.27;4.60;;;6.60;99.90;;;;;;4877270;29;20106;-83
2023/05/03 02:25:02;;;;;;;5.22;2.30;;;6.60;99.90;;;;;;4843623;29;20522;-83
2023/05/03 02:27:29;;;;;;;5.47;2.10;;;6.60;99.90;;;;;;4843941;29;20046;-83
2023/05/03 02:29:56;;;;;;;5.20;2.00;;;6.60;99.90;;;;;;4874097;29;20042;-83
2023/05/03 02:32:22;;;;;;;4.55;2.40;;;6.60;99.90;;;;;;4862128;29;20037;-83
2023/05/03 02:34:49;;;;;;;8.38;2.97;;;6.60;99.90;;;;;;4861574;29;20101;-83
2023/05/03 02:37:16;;;;;;;5.82;1.98;;;6.60;99.90;;;;;;4846979;29;20041;-83
2023/05/03 02:39:42;;;;;;;5.07;1.98;;;6.60;99.90;;;;;;4861841;29;20038;-83
2023/05/03 02:42:09;;;;;;;5.00;2.25;;;6.60;99.90;;;;;;4861981;29;20049;-83
2023/05/03 02:44:36;;;;;;;6.55;2.30;;;6.60;99.90;;;;;;4861906;29;20609;-83
2023/05/03 02:47:02;;;;;;;7.55;2.20;;;6.60;99.90;;;;;;4861633;29;20055;-82
2023/05/03 02:49:29;;;;;;;7.15;2.20;;;6.60;99.90;;;;;;4861683;29;20104;-83
2023/05/03 02:51:56;;;;;;;5.70;2.08;;;6.60;99.90;;;;;;4861341;29;20041;-83
2023/05/03 02:54:23;;;;;;;4.47;2.10;;;6.50;99.90;;;;;;4858810;29;20121;-83
2023/05/03 02:56:50;;;;;;;4.20;2.00;;;6.50;99.90;;;;;;4842939;29;20073;-82
2023/05/03 02:59:17;;;;;;;5.25;2.30;;;6.50;99.90;;;;;;4858661;29;20046;-83
2023/05/03 03:01:45;;;;;;;6.43;2.20;;;6.50;99.90;;;;;;4843652;29;20054;-83
2023/05/03 03:04:12;;;;;;;5.57;2.03;;;6.50;99.90;;;;;;4876923;29;20041;-83
2023/05/03 03:06:39;;;;;;;6.95;2.00;;;6.50;99.90;;;;;;4861985;29;20056;-83
2023/05/03 03:09:05;;;;;;;5.13;2.20;;;6.50;99.90;;;;;;4861774;29;20109;-83
2023/05/03 03:11:32;;;;;;;3.28;1.88;;;6.50;99.90;;;;;;4861635;29;20077;-83
2023/05/03 03:13:59;;;;;;;6.03;2.00;;;6.50;99.90;;;;;;4861276;29;20045;-83
2023/05/03 03:16:26;;;;;;;6.20;2.10;;;6.50;99.90;;;;;;4858331;29;20542;-83
2023/05/03 03:18:52;;;;;;;6.32;2.00;;;6.50;99.90;;;;;;4843174;29;20064;-82
2023/05/03 03:21:19;;;;;;;6.43;2.33;;;6.50;99.90;;;;;;4858746;29;20046;-83
2023/05/03 03:23:46;;;;;;;3.92;2.05;;;6.50;99.90;;;;;;4858521;29;20046;-83
2023/05/03 03:26:12;;;;;;;4.45;2.05;;;6.50;99.90;;;;;;4842845;29;20126;-83
2023/05/03 03:28:39;;;;;;;6.93;2.10;;;6.60;99.90;;;;;;4858588;29;20045;-83
2023/05/03 03:31:06;;;;;;;6.03;2.20;;;6.60;99.90;;;;;;4857850;29;20068;-83
2023/05/03 03:33:34;;;;;;;5.80;2.35;;;6.60;99.90;;;;;;4858138;29;20050;-83
2023/05/03 03:36:00;;;;;;;4.82;2.22;;;6.50;99.90;;;;;;4842688;29;20042;-83
2023/05/03 03:38:27;;;;;;;3.38;1.88;;;6.60;99.90;;;;;;4868417;29;20041;-83
2023/05/03 03:40:54;;;;;;;4.82;1.83;;;6.50;99.90;;;;;;4860970;29;20124;-82
2023/05/03 03:43:21;;;;;;;5.07;1.85;;;6.60;99.90;;;;;;4861496;29;20042;-83
2023/05/03 03:45:48;;;;;;;4.57;1.75;;;6.50;99.90;;;;;;4860721;29;20053;-82
2023/05/03 03:48:14;;;;;;;4.47;1.77;;;6.60;99.90;;;;;;4861096;29;20049;-83
2023/05/03 03:50:41;;;;;;;5.28;2.03;;;6.60;99.90;;;;;;4861006;29;20068;-83
2023/05/03 03:53:09;;;;;;;4.78;1.83;;;6.60;99.90;;;;;;4861073;29;20057;-83
2023/05/03 03:55:36;;;;;;;5.03;2.03;;;6.60;99.90;;;;;;4861510;29;20542;-83
2023/05/03 03:58:04;;;;;;;5.28;2.00;;;6.50;99.90;;;;;;4890819;29;20125;-82
2023/05/03 04:00:31;;;;;;;4.13;1.80;;;6.50;99.90;;;;;;4861342;29;20524;-83
2023/05/03 04:02:57;;;;;;;3.85;1.80;;;6.50;99.90;;;;;;4846119;29;20080;-83
2023/05/03 04:05:24;;;;;;;6.72;1.95;;;6.50;99.90;;;;;;4846181;29;20050;-83
2023/05/03 04:07:51;;;;;;;3.42;1.88;;;6.40;99.90;;;;;;4861934;29;20076;-83
2023/05/03 04:10:17;;;;;;;4.55;1.80;;;6.50;99.90;;;;;;4864653;29;20042;-83
2023/05/03 04:12:44;;;;;;;4.57;1.83;;;6.40;99.90;;;;;;4864967;29;20049;-83
2023/05/03 04:15:12;;;;;;;4.10;2.00;;;6.40;99.90;;;;;;4880133;29;20053;-83
2023/05/03 04:17:38;;;;;;;5.00;1.90;;;6.30;99.90;;;;;;4861079;29;20054;-83
2023/05/03 04:20:06;;;;;;;3.33;2.00;;;6.30;99.90;;;;;;4861236;29;20564;-82
2023/05/03 04:22:33;;;;;;;5.65;1.98;;;6.30;99.90;;;;;;4861645;29;20470;-83
2023/05/03 04:25:02;;;;;;;6.90;1.92;;;6.30;99.90;;;;;;4846312;29;20136;-82
2023/05/03 04:27:29;;;;;;;4.10;2.00;;;6.30;99.90;;;;;;4847136;29;20052;-83
2023/05/03 04:29:56;;;;;;;6.75;2.13;;;6.20;99.90;;;;;;4845872;29;20042;-83
2023/05/03 04:32:22;;;;;;;5.05;1.85;;;6.20;99.90;;;;;;4860879;29;20121;-83
2023/05/03 04:34:53;;;;;;;4.07;1.90;;;6.20;99.90;;;;;;4846211;29;20046;-83
2023/05/03 04:37:22;;;;;;;5.10;2.08;;;6.20;99.90;;;;;;4861499;29;20097;-83
2023/05/03 04:39:48;;;;;;;4.80;1.73;;;6.10;99.90;;;;;;4876287;29;20503;-83
2023/05/03 04:42:15;;;;;;;4.30;2.10;;;6.10;99.90;;;;;;4845543;29;20050;-83
2023/05/03 04:44:42;;;;;;;4.78;1.88;;;6.20;99.90;;;;;;4846081;29;20048;-83
2023/05/03 04:47:09;;;;;;;7.70;1.98;;;6.20;99.90;;;;;;4845679;29;20050;-82
2023/05/03 04:49:36;;;;;;;5.82;2.33;;;6.20;99.90;;;;;;4860569;29;20396;-83
2023/05/03 04:52:03;;;;;;;4.68;1.83;;;6.20;99.90;;;;;;4866750;29;20048;-82
2023/05/03 04:54:30;;;;;;;3.63;1.85;;;6.30;99.90;;;;;;4864038;29;20046;-83
2023/05/03 04:56:57;;;;;;;4.32;2.00;;;6.30;99.90;;;;;;4879194;29;20048;-83
2023/05/03 04:59:24;;;;;;;3.72;2.00;;;6.40;99.90;;;;;;4860352;29;20419;-83
2023/05/03 05:01:50;;;;;;;4.95;2.22;;;6.50;99.90;;;;;;4845842;29;20048;-83
2023/05/03 05:04:17;;;;;;;3.42;1.88;;;6.50;99.90;;;;;;4845457;29;20046;-83
2023/05/03 05:06:44;;;;;;;6.70;1.90;;;6.50;99.90;;;;;;4860656;29;20056;-83
2023/05/03 05:09:26;;;;;;;4.50;2.05;;;6.60;99.90;;;;;;4860652;29;20110;-83
2023/05/03 05:11:53;;;;;;;4.45;2.10;;;6.70;99.90;;;;;;4875839;29;20087;-84
2023/05/03 05:14:20;;;;;;;6.15;2.10;;;6.70;99.90;;;;;;4875849;29;20048;-83
2023/05/03 05:16:46;;;;;;;8.35;2.10;;;6.70;99.90;;;;;;4852062;29;20128;-83
2023/05/03 05:19:13;;;;;;;6.03;2.30;;;6.80;99.90;;;;;;4863480;29;20041;-83
2023/05/03 05:21:40;;;;;;;4.38;1.90;;;6.80;99.90;;;;;;4878774;29;20140;-83
2023/05/03 05:24:07;;;;;;;4.78;1.95;;;6.90;99.90;;;;;;4879073;29;20056;-83
2023/05/03 05:26:34;;;;;;;3.25;1.73;;;6.90;99.90;;;;;;4863906;29;20057;-83
2023/05/03 05:29:01;;;;;;;3.65;1.77;;;7.00;99.90;;;;;;4863789;29;20045;-83
2023/05/03 05:31:27;;;;;;;5.32;1.95;;;7.10;99.90;;;;;;4848350;29;20153;-83
2023/05/03 05:33:54;;;;;;;4.18;2.20;;;7.10;99.90;;;;;;4878955;29;20117;-83
2023/05/03 05:36:21;;;;;;;4.55;1.80;;;7.10;99.90;;;;;;4848093;29;20045;-83
2023/05/03 05:38:47;;;;;;;4.80;2.33;;;7.10;99.90;;;;;;4847980;29;20133;-83
2023/05/03 05:41:14;;;;;;;4.97;1.80;;;7.20;99.90;;;;;;4862803;29;20073;-82
2023/05/03 05:43:41;;;;;;;3.10;2.00;;;7.20;99.90;;;;;;4878996;29;20049;-83
2023/05/03 05:46:07;;;;;;;4.80;1.60;;;7.20;99.90;;;;;;4863152;29;20084;-83
2023/05/03 05:48:34;;;;;;;5.50;1.75;;;7.30;99.90;;;;;;4859906;29;20098;-83
2023/05/03 05:51:01;;;;;;;3.55;1.67;;;7.40;99.90;;;;;;4844796;29;20042;-83
2023/05/03 05:53:28;;;;;;;3.90;1.60;;;7.40;99.90;;;;;;4844670;29;20038;-82
2023/05/03 05:55:54;;;;;;;7.50;1.80;;;7.50;99.90;;;;;;4845151;29;20120;-83
2023/05/03 05:58:21;;;;;;;3.20;1.42;;;7.60;99.90;;;;;;4847739;29;20033;-83
2023/05/03 06:00:48;;;;;;;3.35;1.40;;;7.60;99.90;;;;;;4878397;29;20053;-83
2023/05/03 06:03:15;;;;;;;8.70;1.50;;;7.60;99.90;;;;;;4862464;29;20410;-83
2023/05/03 06:05:42;;;;;;;3.58;1.40;;;7.60;99.90;;;;;;4863314;29;20077;-83
2023/05/03 06:08:09;;;;;;;5.00;1.40;;;7.70;99.90;;;;;;4863069;29;20049;-83
2023/05/03 06:10:36;;;;;;;4.65;1.92;;;7.80;99.90;;;;;;4862611;29;20038;-83
2023/05/03 06:13:02;;;;;;;3.85;1.60;;;7.80;99.90;;;;;;4863226;29;20045;-83
2023/05/03 06:15:29;;;;;;;3.72;1.40;;;7.90;99.90;;;;;;4862611;29;20061;-82
2023/05/03 06:17:56;;;;;;;2.30;1.20;;;7.90;99.90;;;;;;4862940;29;20049;-83
2023/05/03 06:20:23;;;;;;;4.13;1.42;;;8.00;99.90;;;;;;4883518;29;20513;-84
2023/05/03 06:22:50;;;;;;;3.25;1.27;;;8.00;99.90;;;;;;4848792;29;20053;-84
2023/05/03 06:25:17;;;;;;;2.35;0.98;;;8.10;99.90;;;;;;4862770;29;20053;-83
2023/05/03 06:27:43;;;;;;;2.55;1.10;;;8.10;99.90;;;;;;4862427;29;20045;-83
2023/05/03 06:30:11;;;;;;;5.15;1.30;;;8.10;99.90;;;;;;4846951;29;20046;-83
2023/05/03 06:32:39;;;;;;;8.05;1.50;;;8.20;99.90;;;;;;4847598;29;20113;-84
2023/05/03 06:35:08;;;;;;;4.18;1.20;;;8.20;99.90;;;;;;4877982;29;20081;-83
2023/05/03 06:37:35;;;;;;;4.00;1.30;;;8.20;99.90;;;;;;4892980;29;20120;-83
2023/05/03 06:40:02;;;;;;;7.63;1.27;;;8.30;99.90;;;;;;4862273;29;20578;-83
2023/05/03 06:42:28;;;;;;;5.57;1.10;;;8.30;99.90;;;;;;4862083;29;20045;-83
2023/05/03 06:44:55;;;;;;;2.35;1.08;;;8.40;99.90;;;;;;4863076;29;20566;-84
2023/05/03 06:47:22;;;;;;;2.47;1.08;;;8.40;99.90;;;;;;4888515;29;20047;-83
2023/05/03 06:49:48;;;;;;;3.75;1.23;;;8.40;99.90;;;;;;4865570;29;20041;-84
2023/05/03 06:52:15;;;;;;;3.72;1.40;;;8.40;99.90;;;;;;4886213;29;20045;-84
2023/05/03 06:54:43;;;;;;;3.45;1.20;;;8.40;99.90;;;;;;4862149;29;20049;-83
2023/05/03 06:57:09;;;;;;;4.05;1.20;;;8.40;99.90;;;;;;4877482;29;20041;-84
2023/05/03 06:59:36;;;;;;;4.32;1.40;;;8.50;99.90;;;;;;4862104;29;20052;-84
2023/05/03 07:02:03;;;;;;;3.53;1.17;;;8.50;99.90;;;;;;4854428;29;20042;-84
2023/05/03 07:04:29;;;;;;;5.43;1.40;;;8.60;99.90;;;;;;4850897;29;20064;-85
2023/05/03 07:06:56;;;;;;;3.33;1.17;;;8.50;99.90;;;;;;4846775;29;20081;-84
2023/05/03 07:09:23;;;;;;;4.38;1.40;;;8.60;99.90;;;;;;4846360;29;20419;-86
2023/05/03 07:11:50;;;;;;;3.65;1.23;;;8.70;99.90;;;;;;4876617;29;20046;-84
2023/05/03 07:14:17;;;;;;;2.58;1.10;;;8.70;99.90;;;;;;4862099;29;20058;-84
2023/05/03 07:16:44;;;;;;;2.90;1.10;;;8.80;99.90;;;;;;4876526;29;20053;-83
2023/05/03 07:19:10;;;;;;;3.38;1.10;;;8.80;99.90;;;;;;4861417;29;20037;-84
2023/05/03 07:21:38;;;;;;;3.17;1.10;;;8.80;99.90;;;;;;4876445;29;20049;-83
2023/05/03 07:24:06;;;;;;;2.67;1.00;;;8.90;99.90;;;;;;4861686;29;20045;-83
2023/05/03 07:26:33;;;;;;;4.53;1.00;;;9.00;99.90;;;;;;4861604;29;20415;-83
2023/05/03 07:29:00;;;;;;;3.67;0.88;;;9.00;99.90;;;;;;4862432;29;20139;-83
2023/05/03 07:31:27;;;;;;;1.95;0.85;;;8.90;99.90;;;;;;4871969;29;20154;-83
2023/05/03 07:33:54;;;;;;;5.93;1.40;;;8.90;99.90;;;;;;4862159;29;20049;-81
2023/05/03 07:36:20;;;;;;;2.10;0.95;;;9.00;99.90;;;;;;4885231;29;20085;-84
2023/05/03 07:38:47;;;;;;;2.42;1.00;;;9.00;99.90;;;;;;4873415;29;20119;-84
2023/05/03 07:41:14;;;;;;;3.50;1.13;;;9.00;99.90;;;;;;4879775;29;20091;-85
2023/05/03 07:43:40;;;;;;;2.67;0.90;;;8.90;99.90;;;;;;4865339;29;20525;-84
2023/05/03 07:46:07;;;;;;;3.08;1.20;;;9.00;99.90;;;;;;4865268;29;20045;-84
2023/05/03 07:48:34;;;;;;;2.60;1.10;;;9.10;99.90;;;;;;4864588;29;20048;-83
2023/05/03 07:51:03;;;;;;;3.40;1.00;;;9.10;99.90;;;;;;4865377;29;20109;-85
2023/05/03 07:53:30;;;;;;;5.32;1.25;;;9.10;99.90;;;;;;4886091;29;20552;-85
2023/05/03 07:55:56;;;;;;;3.00;1.00;;;9.20;99.90;;;;;;4903922;29;20182;-85
2023/05/03 07:58:23;;;;;;;4.75;1.10;;;9.20;99.90;;;;;;4866775;29;20049;-84
2023/05/03 08:00:50;;;;;;;2.92;1.20;;;9.30;99.90;;;;;;4880411;29;20423;-85
2023/05/03 08:03:17;;;;;;;3.50;1.08;;;9.30;99.90;;;;;;4861302;29;20106;-85
2023/05/03 08:05:43;;;;;;;3.28;1.23;;;9.30;99.90;;;;;;4854424;29;20053;-84
2023/05/03 08:08:11;;;;;;;5.18;2.08;;;9.30;99.90;;;;;;4864636;29;20056;-84
2023/05/03 08:10:37;;;;;;;3.15;1.10;;;9.20;99.90;;;;;;4863901;29;20081;-81
2023/05/03 08:13:07;;;;;;;3.70;1.30;;;9.20;99.90;;;;;;4861084;29;20072;-82
2023/05/03 08:15:34;;;;;;;2.85;1.20;;;9.30;99.90;;;;;;4867247;29;20064;-83
2023/05/03 08:18:01;;;;;;;3.00;1.05;;;9.30;99.90;;;;;;4884139;29;20037;-81
2023/05/03 08:20:28;;;;;;;4.28;1.40;;;9.30;99.90;;;;;;4882991;29;20888;-84
2023/05/03 08:22:55;;;;;;;3.17;1.23;;;9.40;99.90;;;;;;4883043;29;20051;-84
2023/05/03 08:25:24;;;;;;;1.83;0.90;;;9.40;99.90;;;;;;4864728;29;20562;-84
2023/05/03 08:27:51;;;;;;;3.72;1.00;;;9.50;99.90;;;;;;4864431;29;20470;-84
2023/05/03 08:30:21;;;;;;;4.57;1.50;;;9.60;99.90;;;;;;4864053;29;20074;-84
2023/05/03 08:32:48;;;;;;;3.05;1.02;;;9.60;99.90;;;;;;4863992;29;20124;-83
2023/05/03 08:35:15;;;;;;;3.55;1.10;;;9.70;99.90;;;;;;4860888;29;20132;-84
2023/05/03 08:37:42;;;;;;;2.38;1.13;;;9.80;99.90;;;;;;4845584;29;20050;-83
2023/05/03 08:40:12;;;;;;;4.95;1.20;;;9.90;99.90;;;;;;4876161;29;20435;-84
2023/05/03 08:42:43;;;;;;;2.40;1.05;;;10.00;99.90;;;;;;4861018;29;20048;-83
2023/05/03 08:45:13;;;;;;;2.70;0.93;;;10.00;99.90;;;;;;4876363;29;20046;-84
2023/05/03 08:47:40;;;;;;;2.75;1.15;;;10.00;99.90;;;;;;4864094;29;20603;-83
2023/05/03 08:50:08;;;;;;;4.47;1.08;;;10.10;99.90;;;;;;4864089;29;20098;-84
2023/05/03 08:52:36;;;;;;;2.28;1.02;;;10.20;99.90;;;;;;4863894;29;20049;-82
2023/05/03 08:55:03;;;;;;;7.25;1.15;;;10.20;99.90;;;;;;4878373;29;20053;-84
2023/05/03 08:57:32;;;;;;;3.17;1.13;;;10.30;99.90;;;;;;4864299;29;20045;-83
2023/05/03 09:00:00;;;;;;;4.80;1.20;;;10.30;99.90;;;;;;4894331;29;20128;-83
2023/05/03 09:02:27;;;;;;;1.65;0.85;;;10.20;99.90;;;;;;4864029;29;20503;-84
2023/05/03 09:04:55;;;;;;;2.60;1.00;;;10.30;99.90;;;;;;4878661;29;20119;-83
2023/05/03 09:07:22;;;;;;;2.83;1.10;;;10.20;99.90;;;;;;4863823;29;20094;-84
2023/05/03 09:09:48;;;;;;;6.82;1.33;;;10.20;99.90;;;;;;4863670;29;20495;-83
2023/05/03 09:12:35;;;;;;;4.22;1.25;;;10.20;99.90;;;;;;4879031;29;20053;-84
2023/05/03 09:15:03;;;;;;;2.30;0.93;;;10.20;99.90;;;;;;4863032;29;20475;-83
2023/05/03 09:17:30;;;;;;;3.55;1.10;;;10.20;99.90;;;;;;4894393;29;20109;-84
2023/05/03 09:19:58;;;;;;;4.45;1.20;;;10.20;99.90;;;;;;4863355;29;20045;-83
2023/05/03 09:22:30;;;;;;;2.95;1.05;;;10.20;99.90;;;;;;4863617;29;20053;-83
2023/05/03 09:24:59;;;;;;;5.80;1.30;;;10.20;99.90;;;;;;4863175;29;20045;-84
2023/05/03 09:27:26;;;;;;;2.72;1.00;;;10.20;99.90;;;;;;4879079;29;20074;-84
2023/05/03 09:29:53;;;;;;;3.42;1.20;;;10.30;99.90;;;;;;4863264;29;20109;-83
2023/05/03 09:32:21;;;;;;;2.90;1.05;;;10.30;99.90;;;;;;4893785;29;20385;-83
2023/05/03 09:34:48;;;;;;;5.22;1.15;;;10.30;99.90;;;;;;4878334;29;20456;-83
2023/05/03 09:37:15;;;;;;;3.35;1.10;;;10.30;99.90;;;;;;4878048;29;20049;-84
2023/05/03 09:39:44;;;;;;;1.80;1.00;;;10.40;99.90;;;;;;4863019;29;20491;-83
2023/05/03 09:42:15;;;;;;;3.13;1.30;;;10.50;99.90;;;;;;4878755;29;20056;-83
2023/05/03 09:44:52;;;;;;;2.25;1.10;;;10.50;99.90;;;;;;4863049;29;20404;-83
2023/05/03 09:47:20;;;;;;;2.90;1.30;;;10.50;99.90;;;;;;4878670;29;20052;-83
2023/05/03 09:49:47;;;;;;;5.30;1.02;;;10.50;99.90;;;;;;4856744;29;20129;-83
2023/05/03 09:52:14;;;;;;;3.38;1.08;;;10.60;99.90;;;;;;4878249;29;20132;-83
2023/05/03 09:54:42;;;;;;;3.45;1.00;;;10.60;99.90;;;;;;4863068;29;20046;-84
2023/05/03 09:57:08;;;;;;;2.20;0.85;;;10.80;99.90;;;;;;4877607;29;20037;-84
2023/05/03 09:59:37;;;;;;;4.00;1.00;;;10.80;99.90;;;;;;4848009;29;20101;-84
2023/05/03 10:02:06;;;;;;;4.10;1.20;;;10.90;99.90;;;;;;4862830;29;20049;-83
2023/05/03 10:04:59;;;;;;;4.03;1.15;;;10.80;99.90;;;;;;4879057;29;20088;-84
2023/05/03 10:07:27;;;;;;;3.58;1.10;;;10.80;99.90;;;;;;4875956;29;20163;-84
2023/05/03 10:09:57;;;;;;;1.80;0.90;;;10.90;99.90;;;;;;4862462;29;20562;-84
2023/05/03 10:12:26;;;;;;;6.28;1.20;;;10.90;99.90;;;;;;4881102;29;20057;-83
2023/05/03 10:14:55;;;;;;;3.92;1.10;;;10.90;99.90;;;;;;4884830;29;20041;-83
2023/05/03 10:17:34;;;;;;;4.72;1.30;;;11.00;99.90;;;;;;4879403;29;20080;-82
2023/05/03 10:20:13;;;;;;;4.40;1.13;;;11.00;99.90;;;;;;4859312;29;20049;-83
2023/05/03 10:23:10;;;;;;;3.97;1.20;;;10.90;99.90;;;;;;4859491;29;20445;-84
2023/05/03 10:25:39;;;;;;;3.78;1.20;;;10.90;99.90;;;;;;4858328;29;20539;-84
2023/05/03 10:28:14;;;;;;;4.38;1.02;;;11.00;99.90;;;;;;5186874;27;20889;-84
2023/05/03 10:30:41;;;;;;;4.95;1.10;;;11.00;99.90;;;;;;5168397;27;20092;-84
2023/05/03 10:33:11;;;;;;;6.55;1.40;;;11.10;99.90;;;;;;5168269;27;20421;-84
2023/05/03 10:35:42;;;;;;;6.90;1.15;;;11.10;99.90;;;;;;5168032;27;20035;-84
2023/05/03 10:38:18;;;;;;;3.88;1.20;;;11.20;99.90;;;;;;5167701;27;20032;-84
2023/05/03 10:40:45;;;;;;;3.53;1.10;;;11.40;99.90;;;;;;5151245;27;20043;-84
2023/05/03 10:43:42;;;;;;;5.13;1.40;;;11.40;99.90;;;;;;5184991;27;20394;-84
2023/05/03 10:46:29;;;;;;;;;;;11.80;99.90;;;;;;5185274;27;20142;-85
2023/05/03 10:49:15;;;;;;;;;;;12.20;99.90;;;;;;5168071;27;19915;-84
2023/05/03 10:51:44;;;;;;;3.67;1.10;;;12.10;99.90;;;;;;5167673;27;19915;-84
2023/05/03 10:54:11;;;;;;;3.22;1.30;;;12.40;99.90;;;;;;5167411;27;20031;-84
2023/05/03 10:56:52;;;;;;;2.08;1.00;;;12.40;99.90;;;;;;5134035;27;20043;-84
2023/05/03 10:59:19;;;;;;;4.47;1.30;;;12.40;99.90;;;;;;5167421;27;20066;-84
2023/05/03 11:01:50;;;;;;;4.13;1.15;;;12.30;99.90;;;;;;5167844;27;20125;-84
2023/05/03 11:04:20;;;;;;;6.38;1.30;;;12.20;99.90;;;;;;5185008;27;20039;-85
2023/05/03 11:06:50;;;;;;;2.83;1.25;;;12.10;99.90;;;;;;5184798;27;20122;-84
2023/05/03 11:09:17;;;;;;;4.07;1.52;;;12.10;99.90;;;;;;5150740;27;20039;-84
2023/05/03 11:11:43;;;;;;;6.28;1.35;;;12.10;99.90;;;;;;5165668;27;20043;-84
2023/05/03 11:14:12;;;;;;;4.05;1.40;;;12.00;99.90;;;;;;5112629;28;20906;-84
2023/05/03 11:16:46;;;;;;;4.22;1.30;;;11.90;99.90;;;;;;5113352;28;20487;-84
2023/05/03 11:19:14;;;;;;;3.88;1.25;;;12.00;99.90;;;;;;5130320;28;20046;-84
2023/05/03 11:21:42;;;;;;;3.80;1.20;;;12.00;99.90;;;;;;5145196;27;20091;-84
2023/05/03 11:24:09;;;;;;;3.40;1.20;;;12.00;99.90;;;;;;5148772;27;20054;-84
2023/05/03 11:26:37;;;;;;;6.30;1.30;;;12.00;99.90;;;;;;5112328;28;20072;-84
2023/05/03 11:29:04;;;;;;;3.50;1.20;;;12.30;99.90;;;;;;5146383;28;20491;-84
2023/05/03 11:31:31;;;;;;;3.22;1.30;;;12.40;99.90;;;;;;5163594;27;20126;-84
2023/05/03 11:33:58;;;;;;;3.33;1.35;;;12.80;99.90;;;;;;5129309;28;20407;-84
2023/05/03 11:36:26;;;;;;;3.38;1.30;;;13.10;99.90;;;;;;5146356;28;20384;-84
2023/05/03 11:38:53;;;;;;;3.05;1.30;;;13.30;99.90;;;;;;5129365;27;20487;-81
2023/05/03 11:41:20;;;;;;;5.72;1.50;;;13.40;99.90;;;;;;5152886;27;20043;-82
2023/05/03 11:43:48;;;;;;;4.13;1.27;;;13.40;99.90;;;;;;5119691;27;20031;-82
2023/05/03 11:46:35;;;;;;;6.55;1.48;;;13.20;99.90;;;;;;5135802;27;20183;-82
2023/05/03 11:49:02;;;;;;;3.97;1.23;;;13.10;99.90;;;;;;5152673;27;20479;-81
2023/05/03 11:51:30;;;;;;;2.80;1.30;;;12.80;99.90;;;;;;5135997;27;20046;-82
2023/05/03 11:54:00;;;;;;;3.92;1.30;;;12.60;99.90;;;;;;5135904;27;20381;-82
2023/05/03 11:56:26;;;;;;;3.60;1.40;;;12.70;99.90;;;;;;5152451;27;20047;-82
2023/05/03 11:58:56;;;;;;;4.82;1.40;;;12.90;99.90;;;;;;5135944;27;20487;-82
2023/05/03 12:01:24;;;;;;;4.55;1.30;;;12.80;99.90;;;;;;5145850;28;20122;-82
2023/05/03 12:04:00;;;;;;;4.43;1.63;;;12.80;99.90;;;;;;5132368;28;20083;-82
2023/05/03 12:06:30;;;;;;;5.43;1.58;;;12.80;99.90;;;;;;5131748;28;20050;-82
2023/05/03 12:08:56;;;;;;;3.03;1.20;;;12.60;99.90;;;;;;5132047;28;20122;-82
2023/05/03 12:11:24;;;;;;;3.13;1.42;;;12.50;99.90;;;;;;5098502;28;20134;-82
2023/05/03 12:14:01;;;;;;;4.95;1.40;;;12.40;99.90;;;;;;5115350;28;20118;-81
2023/05/03 12:16:45;;;;;;;4.82;1.60;;;12.60;99.90;;;;;;5114499;28;20101;-81
2023/05/03 12:19:25;;;;;;;3.22;1.33;;;12.90;99.90;;;;;;5131621;28;20161;-82
2023/05/03 12:21:52;;;;;;;4.00;1.30;;;13.20;99.90;;;;;;5120440;28;20054;-82
2023/05/03 12:24:21;;;;;;;6.78;1.35;;;13.30;99.90;;;;;;5131647;28;20495;-84
2023/05/03 12:26:49;;;;;;;4.60;1.60;;;13.40;99.90;;;;;;5114748;28;20412;-84
2023/05/03 12:29:15;;;;;;;4.35;1.42;;;13.20;99.90;;;;;;5114245;28;20040;-84
2023/05/03 12:31:43;;;;;;;3.83;1.48;;;13.40;99.90;;;;;;5124797;28;20035;-84
2023/05/03 12:34:11;;;;;;;4.30;1.50;;;13.40;99.90;;;;;;5148415;27;20040;-83
2023/05/03 12:36:38;;;;;;;7.65;1.60;;;13.40;99.90;;;;;;5148393;28;20043;-84
2023/05/03 12:39:07;;;;;;;2.60;1.30;;;13.60;99.90;;;;;;5148252;28;20509;-83
2023/05/03 12:41:34;;;;;;;3.13;1.20;;;13.60;99.90;;;;;;5124759;28;20079;-83
2023/05/03 12:44:01;;;;;;;2.33;1.30;;;13.50;99.90;;;;;;5148617;28;20122;-84
2023/05/03 12:46:28;;;;;;;5.25;1.95;;;13.40;99.90;;;;;;5130946;28;20143;-83
2023/05/03 12:48:55;;;;;;;4.70;1.40;;;13.40;99.90;;;;;;5131354;28;20047;-84
2023/05/03 12:51:22;;;;;;;7.35;1.90;;;13.40;99.90;;;;;;5147095;28;20119;-84
2023/05/03 12:53:49;;;;;;;7.03;1.60;;;13.40;99.90;;;;;;5131131;28;20085;-84
2023/05/03 12:56:16;;;;;;;2.78;1.30;;;13.30;99.90;;;;;;5130560;28;20039;-84
2023/05/03 12:58:46;;;;;;;4.93;1.98;;;13.30;99.90;;;;;;5148282;28;20054;-83
2023/05/03 13:01:13;;;;;;;3.95;1.50;;;13.10;99.90;;;;;;5132389;27;20040;-84
2023/05/03 13:03:39;;;;;;;3.35;1.58;;;13.10;99.90;;;;;;5134075;27;20395;-84